Tiempo atmosférico en la estación meteorológica de Fuente De Cantos, Badajoz (602 m.)



Fecha
DESCASC
Temp. máxima en grados centígrados (hora)
DESCASC
Temp. mínima en grados centígrados (hora)
DESCASC
Temp. media en grados centígrados
DESCASC
Racha de viento máxima en m/sg (hora)
DESCASC
Velocidad máxima media en intervalos de 10 minutos(hora)
DESCASC
Precipitaciones diarias en mm
DESCASC
Precipitaciones de 00:00 a 06:00 en mm
DESCASC
Precipitaciones de 06:00 a 12:00 en mm
DESCASC
Precipitaciones de 12:00 a 18:00 en mm
DESCASC
Precipitaciones de 18:00 a 24:00 en mm
DESCASC
17-09-2020 25.5 (14:30) 17.9 (08:00) 21.7 18.33 (18:20) 13.06 (18:20) 0 0 0 0 0
16-09-2020 27.8 (15:40) 15.9 (07:00) 21.8 8.61 (13:30) 6.39 (13:30) 0 0 0 0 0
15-09-2020 29.2 (17:20) 15.1 (06:30) 22.2 8.61 (15:00) 5.28 (12:00) 0 0 0 0 0
14-09-2020 30.8 (16:10) 19.8 (00:00) 25.3 18.06 (13:40) 9.17 (14:10) 0 0 0 0 0
13-09-2020 32.9 (15:50) 20.8 (00:00) 26.9 15 (12:10) 11.39 (12:30) 0 0 0 0 0
12-09-2020 33.7 (15:50) 20 (00:00) 26.9 12.78 (14:10) 7.78 (11:00) 0 0 0 0 0
11-09-2020 33 (15:00) 19.9 (00:00) 26.4 9.72 (17:30) 5.56 (17:30) 0 0 0 0 0
10-09-2020 32.1 (17:20) 19.6 (00:00) 25.8 7.78 (02:30) 4.17 (21:00) 0 0 0 0 0
09-09-2020 30.5 (17:00) 17.2 (00:00) 23.9 7.78 (16:30) 4.72 (21:20) 0 0 0 0 0
08-09-2020 31.7 (17:00) 18.4 (00:00) 25.1 11.67 (21:10) 6.67 (21:00) 0 0 0 0 0
07-09-2020 34 (17:30) 20.1 (05:50) 27.1 9.44 (16:40) 6.94 (18:40) 0 0 0 0 0
06-09-2020 34.9 (17:10) 18 (00:00) 26.5 8.33 (08:30) 6.94 (08:30) 0 0 0 0 0
05-09-2020 34.2 (18:40) 18.4 (00:00) 26.3 8.06 (05:20) 7.22 (06:00) 0 0 0 0 0
04-09-2020 33.9 (17:50) 17.4 (00:00) 25.7 10 (15:40) 6.67 (11:40) 0 0 0 0 0
03-09-2020 33.3 (17:40) 18 (00:00) 25.6 8.33 (08:50) 6.39 (08:50) 0 0 0 0 0
02-09-2020 32.1 (15:40) 16.5 (00:00) 24.3 9.44 (14:10) 5.83 (20:20) 0 0 0 0 0
01-09-2020 31 (16:00) 17.5 (00:00) 24.3 9.72 (17:10) 6.11 (16:40) 0 0 0 0 0
31-08-2020 30.9 (18:40) 14.9 (00:00) 22.9 8.89 (11:10) 7.22 (07:40) 0 0 0 0 0
30-08-2020 27.8 (17:50) 13.3 (00:00) 20.5 8.61 (18:10) 5.83 (23:30) 0 0 0 0 0
29-08-2020 25.3 (17:40) 10.3 (00:00) 17.8 15.83 (12:40) 10.83 (10:40) 0 0 0 0 0
28-08-2020 30.2 (17:00) 15.4 (00:00) 22.8 13.61 (14:40) 10 (17:50) 0 0 0 0 0
27-08-2020 35.5 (16:30) 23.2 (00:00) 29.4 11.94 (18:30) 7.5 (20:20) 0 0 0 0 0
26-08-2020 37.4 (16:00) 22.2 (00:00) 29.8 10 (19:10) 7.5 (19:10) 0 0 0 0 0
25-08-2020 37.2 (18:10) 21.7 (00:00) 29.5 9.17 (16:20) 5.83 (20:40) 0 0 0 0 0
24-08-2020 36.7 (18:10) 18.7 (00:00) 27.7 9.17 (15:50) 6.11 (15:50) 0 0 0 0 0
23-08-2020 32.9 (17:50) 18.6 (00:00) 25.8 9.72 (15:50) 6.11 (16:10) 0 0 0 0 0
22-08-2020 33.2 (18:30) 17.6 (00:00) 25.4 8.33 (19:30) 5.83 (20:20) 0 0 0 0 0
21-08-2020 32.7 (16:30) 16.9 (00:00) 24.8 11.67 (16:50) 7.78 (19:00) 0 0 0 0 0

Gráficas

Temp. máximas Temp. mínimas Temp. medias Precipitaciones Rachas de viento máximas Velocidades máximas media en intervalos de 10 minutos

Datos horarios

Fecha y hora oficial Temperatura (ºC) Velocidad del viento (km/h) Dirección del viento Racha (km/h) Dirección de racha Precipitación (mm) Presión (hPa) Tendencia (hPa) Humedad (%)
2020-09-19 23:00:00 17.1 13 Sudoeste 17 Sudoeste 0 -- -- 76
2020-09-19 22:00:00 18 15 Oeste 23 Oeste 0 -- -- 70
2020-09-19 21:00:00 19.2 14 Oeste 24 Oeste 0 -- -- 63
2020-09-19 20:00:00 21.3 21 Oeste 30 Oeste 0 -- -- 55
2020-09-19 19:00:00 22.9 23 Oeste 31 Oeste 0 -- -- 49
2020-09-19 18:00:00 22.7 18 Sudoeste 35 Oeste 0 -- -- 51
2020-09-19 17:00:00 22.7 23 Sudoeste 62 Oeste 0 -- -- 51
2020-09-19 16:00:00 22.9 21 Oeste 35 Oeste 0 -- -- 52
2020-09-19 15:00:00 22.3 21 Oeste 38 Oeste 0 -- -- 51
2020-09-19 14:00:00 21.1 20 Oeste 35 Oeste 0 -- -- 58
2020-09-19 13:00:00 20.2 19 Oeste 27 Sudoeste 0 -- -- 66
2020-09-19 12:00:00 18 18 Sudoeste 26 Oeste 0 -- -- 73
2020-09-19 11:00:00 17.2 15 Sudoeste 21 Sudoeste 0 -- -- 81
2020-09-19 10:00:00 16 10 Sudoeste 14 Sudoeste 0 -- -- 88
2020-09-19 09:00:00 14.4 8 Oeste 13 Sudoeste 0 -- -- 90
2020-09-19 08:00:00 13.8 8 Sur 17 Sudoeste 0 -- -- 91
2020-09-19 07:00:00 14.5 12 Sudoeste 27 Sudoeste 0 -- -- 89
2020-09-19 06:00:00 14.4 16 Sudoeste 23 Sudoeste 0 -- -- 90
2020-09-19 05:00:00 14.7 17 Sudoeste 25 Sudoeste 0 -- -- 89
2020-09-19 04:00:00 14.6 18 Sudoeste 30 Sudoeste 0 -- -- 90
2020-09-19 03:00:00 15.2 24 Sudoeste 37 Sudoeste 0 -- -- 88
2020-09-19 02:00:00 15.8 24 Sudoeste 33 Sudoeste 0 -- -- 85
2020-09-19 01:00:00 15.6 23 Sudoeste 36 Sur 0 -- -- 87
2020-09-19 00:00:00 16 24 Sur 37 Sur 0 -- -- 86
2020-09-18 23:00:00 16.2 26 Sudoeste 39 Sudoeste 0 -- -- 88
2020-09-18 22:00:00 16.4 32 Sur 51 Sur 0 -- -- 86
2020-09-18 21:00:00 17 40 Sur 55 Sur 0 -- -- 79
2020-09-18 20:00:00 17 36 Sur 58 Sur 0 -- -- 81
2020-09-18 19:00:00 18.5 41 Sur 63 Sur 0.2 -- -- 73
2020-09-18 18:00:00 17.4 26 Sudoeste 60 Sur 0.6 -- -- 85
2020-09-18 17:00:00 19.3 41 Sur 58 Sur 0 -- -- 73
2020-09-18 16:00:00 18 33 Sur 48 Sur 0 -- -- 83
2020-09-18 15:00:00 17 25 Sur 35 Sur 0.4 -- -- 86
2020-09-18 14:00:00 17.3 29 Sur 58 Sur 0 -- -- 84
2020-09-18 13:00:00 17.1 49 Sur 64 Sur 1.6 -- -- 85
2020-09-18 12:00:00 18.9 35 Sur 57 Sur 0 -- -- 75
2020-09-18 11:00:00 17.7 30 Sur 57 Sur 0 -- -- 79
2020-09-18 10:00:00 17 40 Sur 54 Sur 0 -- -- 81
2020-09-18 09:00:00 15.2 17 Sudeste 27 Sudeste 0 -- -- 85
2020-09-18 08:00:00 14.7 14 Sudeste 21 Sudeste 0 -- -- 85
2020-09-18 07:00:00 14.4 14 Sudeste 18 Sudeste 0 -- -- 83
2020-09-18 06:00:00 15.4 6 Este 36 Sur 0 -- -- 82
2020-09-18 05:00:00 16 24 Sudoeste 33 Sur 0 -- -- 85
2020-09-18 04:00:00 16.6 18 Sudoeste 25 Sudoeste 0 -- -- 90
2020-09-18 03:00:00 17 11 Sudoeste 23 Sudoeste 0.2 -- -- 91
2020-09-18 02:00:00 17.3 22 Sudoeste 45 Sur 0.4 -- -- 87
2020-09-18 01:00:00 18.6 28 Sur 43 Sur 0 -- -- 78
2020-09-18 00:00:00 18.4 21 Sur 34 Sur 0 -- -- 74
2020-09-17 23:00:00 19.3 20 Sur 40 Sur 0 -- -- 68
2020-09-17 22:00:00 19.5 28 Sur 41 Sur 0 -- -- 71
2020-09-17 21:00:00 20.3 31 Sur 47 Sur 0 -- -- 66
2020-09-17 20:00:00 21.4 33 Sur 57 Sur 0 -- -- 63
2020-09-17 19:00:00 22.6 40 Sur 66 Sur 0 -- -- 59
2020-09-17 18:00:00 23.5 40 Sur 54 Sur 0 -- -- 57
2020-09-17 17:00:00 23.9 38 Sur 54 Sudeste 0 -- -- 57
2020-09-17 16:00:00 24.5 36 Sudeste 52 Sur 0 -- -- 56
2020-09-17 15:00:00 24.9 38 Sur 55 Sur 0 -- -- 53
2020-09-17 14:00:00 23.7 32 Sur 51 Sur 0 -- -- 55
2020-09-17 13:00:00 23 27 Sur 45 Sur 0 -- -- 53
2020-09-17 12:00:00 20 21 Sur 42 Sur 0 -- -- 70
2020-09-17 11:00:00 20 30 Sur 42 Sur 0 -- -- 70
2020-09-17 10:00:00 18.9 22 Sur 30 Sur 0 -- -- 77
2020-09-17 09:00:00 18.6 15 Sur 27 Sur 0 -- -- 77
2020-09-17 08:00:00 17.9 12 Sur 32 Sudeste 0 -- -- 79
2020-09-17 07:00:00 18.2 22 Sudeste 43 Sudeste 0 -- -- 82
2020-09-17 06:00:00 18.6 34 Sudeste 45 Sudeste 0 -- -- 82
2020-09-17 05:00:00 18.7 25 Sudeste 35 Sudeste 0 -- -- 83
2020-09-17 04:00:00 18.9 11 Sur 28 Sur 0 -- -- 79
2020-09-17 03:00:00 19.4 21 Sudeste 26 Sudeste 0 -- -- 74
2020-09-17 02:00:00 20 14 Sudeste 23 Sudeste 0 -- -- 69
2020-09-17 01:00:00 20.8 12 Sudeste 27 Sudeste 0 -- -- 65
2020-09-17 00:00:00 21.7 21 Sudeste 27 Sudeste 0 -- -- 61
2020-09-16 23:00:00 22.3 12 Sur 22 Sur 0 -- -- 60
2020-09-16 22:00:00 22.3 8 Sur 22 Sur 0 -- -- 65
2020-09-16 21:00:00 23.2 20 Sur 28 Sur 0 -- -- 55
2020-09-16 20:00:00 24 21 Sur 27 Sur 0 -- -- 53
2020-09-16 19:00:00 24.8 18 Sur 24 Sur 0 -- -- 47
2020-09-16 18:00:00 25.7 14 Sur 24 Sudeste 0 -- -- 43
2020-09-16 17:00:00 26 21 Sudeste 29 Sudeste 0 -- -- 39
2020-09-16 16:00:00 27.2 17 Sur 29 Sur 0 -- -- 40
2020-09-16 15:00:00 26.9 17 Sudeste 29 Sur 0 -- -- 40
2020-09-16 14:00:00 27.1 22 Sur 31 Sudeste 0 -- -- 40
2020-09-16 13:00:00 26.9 13 Sudeste 24 Este 0 -- -- 42
2020-09-16 12:00:00 25.5 12 Este 20 Este 0 -- -- 45
2020-09-16 11:00:00 23.7 10 Este 20 Este 0 -- -- 49
2020-09-16 10:00:00 20.4 14 Este 17 Este 0 -- -- 60
2020-09-16 09:00:00 17.8 4 Sudeste 11 Sudeste 0 -- -- 67
2020-09-16 08:00:00 17 8 Este 9 Este 0 -- -- 70
2020-09-16 07:00:00 15.9 6 Sudeste 8 Sudeste 0 -- -- 74
2020-09-16 06:00:00 16.6 3 Sudoeste 4 Oeste 0 -- -- 73
2020-09-16 05:00:00 16.5 3 Sudoeste 9 Sudoeste 0 -- -- 73
2020-09-16 04:00:00 16.7 9 Sudoeste 11 Sudoeste 0 -- -- 72
2020-09-16 03:00:00 17.3 8 Sudoeste 17 Oeste 0 -- -- 69
2020-09-16 02:00:00 18.5 15 Oeste 18 Oeste 0 -- -- 65
2020-09-16 01:00:00 20.9 4 Sudoeste 8 Sudoeste 0 -- -- 53
2020-09-16 00:00:00 21.3 7 Sudoeste 10 Sudoeste 0 -- -- 50
2020-09-15 23:00:00 22.5 8 Oeste 12 Oeste 0 -- -- 45
2020-09-15 22:00:00 24 5 Sur 8 Sur 0 -- -- 43
2020-09-15 21:00:00 25.2 6 Sudoeste 15 Sudoeste 0 -- -- 40
2020-09-15 20:00:00 27.6 9 Sudoeste 20 Sudoeste 0 -- -- 36
2020-09-15 19:00:00 29.1 8 Sudoeste 19 Sur 0 -- -- 34
2020-09-15 18:00:00 29 8 Sudoeste 23 Sur 0 -- -- 36
2020-09-15 17:00:00 28.9 11 Sur 25 Sur 0 -- -- 36
2020-09-15 16:00:00 27.8 13 Sur 28 Sur 0 -- -- 39
2020-09-15 15:00:00 27.5 17 Sur 31 Sur 0 -- -- 39
2020-09-15 14:00:00 27 16 Sur 29 Sudoeste 0 -- -- 43
2020-09-15 13:00:00 25.6 12 Sudoeste 28 Sudeste 0 -- -- 46
2020-09-15 12:00:00 24.1 19 Sudeste 28 Sudeste 0 -- -- 57
2020-09-15 11:00:00 21.3 12 Este 19 Este 0 -- -- 65
2020-09-15 10:00:00 18.6 6 Nordeste 9 Nordeste 0 -- -- 75
2020-09-15 09:00:00 16.4 2 Oeste 4 Oeste 0 -- -- 83
2020-09-15 08:00:00 15.6 3 Sur 5 Sur 0 -- -- 84
2020-09-15 07:00:00 15.2 5 Sur 10 Sudeste 0 -- -- 84
2020-09-15 06:00:00 15.5 5 Sur 7 Sur 0 -- -- 83
2020-09-15 05:00:00 15.7 3 Sur 10 Sudoeste 0 -- -- 81
2020-09-15 04:00:00 16.3 10 Sudoeste 13 Oeste 0 -- -- 78
2020-09-15 03:00:00 17.8 2 Sudoeste 7 Oeste 0 -- -- 76
2020-09-15 02:00:00 18.7 5 Sudoeste 11 Sur 0 -- -- 71
2020-09-15 01:00:00 19.3 10 Sur 16 Sur 0 -- -- 72
2020-09-15 00:00:00 20.3 4 Nordeste 15 Sudoeste 0 -- -- 76
2020-09-14 23:00:00 21.5 14 Sudoeste 20 Sudoeste 0 -- -- 74
2020-09-14 22:00:00 22.7 11 Sur 22 Sur 0 -- -- 66
2020-09-14 21:00:00 24.3 16 Sur 26 Sur 0 -- -- 59
2020-09-14 20:00:00 26 22 Sur 34 Sudoeste 0 -- -- 50
2020-09-14 19:00:00 27.9 26 Sudoeste 41 Sur 0 -- -- 45
2020-09-14 18:00:00 28.8 25 Sudoeste 36 Sudoeste 0 -- -- 45
2020-09-14 17:00:00 29.7 23 Sudoeste 39 Sudoeste 0 -- -- 40
2020-09-14 16:00:00 30.1 23 Sur 39 Sur 0 -- -- 38
2020-09-14 15:00:00 30.5 25 Sur 44 Sur 0 -- -- 35
2020-09-14 14:00:00 29.4 32 Sur 65 Sur 0 -- -- 36
2020-09-14 13:00:00 29.1 26 Sur 41 Sur 0 -- -- 37
2020-09-14 12:00:00 27.4 21 Sudeste 33 Sudeste 0 -- -- 39
2020-09-14 11:00:00 25.3 16 Sudeste 22 Sudeste 0 -- -- 43
2020-09-14 10:00:00 22.5 5 Sur 15 Este 0 -- -- 52
2020-09-14 09:00:00 20.3 13 Este 17 Este 0 -- -- 61
2020-09-14 08:00:00 20.1 13 Este 17 Este 0 -- -- 62
2020-09-14 07:00:00 20.1 14 Sudeste 17 Sudeste 0 -- -- 63
2020-09-14 06:00:00 20.4 5 Sudeste 14 Este 0 -- -- 62
2020-09-14 05:00:00 21.1 8 Este 10 Este 0 -- -- 62
2020-09-14 04:00:00 20.6 6 Nordeste 9 Sudoeste 0 -- -- 60
2020-09-14 03:00:00 21.8 9 Sudoeste 13 Sur 0 -- -- 57
2020-09-14 02:00:00 22 10 Sur 13 Sur 0 -- -- 55
2020-09-14 01:00:00 22.3 7 Sudeste 10 Sudeste 0 -- -- 57
2020-09-14 00:00:00 22.2 5 Sur 14 Oeste 0 -- -- 62
2020-09-13 23:00:00 23.2 8 Oeste 11 Oeste 0 -- -- 58
2020-09-13 22:00:00 25.1 7 Sudoeste 14 Sudoeste 0 -- -- 51
2020-09-13 21:00:00 27.9 7 Sur 21 Sudeste 0 -- -- 38
2020-09-13 20:00:00 30.3 19 Sur 32 Sudeste 0 -- -- 28
2020-09-13 19:00:00 31.9 22 Sur 51 Sur 0 -- -- 26
2020-09-13 18:00:00 32.4 20 Sudeste 39 Sudeste 0 -- -- 27
2020-09-13 17:00:00 31.3 25 Sudeste 48 Sudeste 0 -- -- 27
2020-09-13 16:00:00 32 30 Sudeste 46 Sudeste 0 -- -- 25
2020-09-13 15:00:00 32.2 31 Sur 49 Sur 0 -- -- 25
2020-09-13 14:00:00 31.7 32 Sudeste 49 Sudeste 0 -- -- 25
2020-09-13 13:00:00 30.3 37 Sudeste 54 Sudeste 0 -- -- 27
2020-09-13 12:00:00 28.2 34 Sudeste 50 Sudeste 0 -- -- 31
2020-09-13 11:00:00 25.8 31 Sudeste 41 Sudeste 0 -- -- 36
2020-09-13 10:00:00 24.1 23 Sudeste 33 Este 0 -- -- 40
2020-09-13 09:00:00 22 18 Este 27 Sudeste 0 -- -- 43
2020-09-13 08:00:00 22.3 12 Este 24 Sudeste 0 -- -- 42
2020-09-13 07:00:00 22 16 Sudeste 20 Este 0 -- -- 43
2020-09-13 06:00:00 22.1 18 Sudeste 23 Sudeste 0 -- -- 41
2020-09-13 05:00:00 22.6 12 Sudeste 18 Sudeste 0 -- -- 43
2020-09-13 04:00:00 22.7 14 Sudeste 26 Sudeste 0 -- -- 41
2020-09-13 03:00:00 23.2 24 Sudeste 27 Sudeste 0 -- -- 40
2020-09-13 02:00:00 22.9 17 Este 23 Este 0 -- -- 34
2020-09-13 01:00:00 25 17 Este 26 Este 0 -- -- 30
2020-09-13 00:00:00 26.1 19 Este 25 Este 0 -- -- 28
2020-09-12 23:00:00 26.5 19 Sudeste 22 Sudeste 0 -- -- 29
2020-09-12 22:00:00 27.5 15 Sudeste 18 Sudeste 0 -- -- 28
2020-09-12 21:00:00 29 17 Sudeste 22 Sudeste 0 -- -- 27
2020-09-12 20:00:00 31.7 13 Sudeste 23 Sudeste 0 -- -- 24
2020-09-12 19:00:00 32.4 14 Sudeste 26 Sudeste 0 -- -- 23
2020-09-12 18:00:00 32.4 12 Sudeste 26 Este 0 -- -- 23
2020-09-12 17:00:00 32.5 13 Sudeste 30 Sudeste 0 -- -- 23
2020-09-12 16:00:00 33.2 17 Sudeste 35 Sudeste 0 -- -- 22
2020-09-12 15:00:00 32.9 19 Sudeste 46 Sudeste 0 -- -- 23
2020-09-12 14:00:00 32.2 28 Sudeste 39 Sudeste 0 -- -- 23
2020-09-12 13:00:00 30.8 24 Sudeste 42 Sudeste 0 -- -- 25
2020-09-12 12:00:00 29.7 23 Sudeste 37 Sudeste 0 -- -- 27
2020-09-12 11:00:00 27.4 28 Sudeste 36 Este 0 -- -- 30
2020-09-12 10:00:00 24.8 21 Sudeste 29 Este 0 -- -- 39
2020-09-12 09:00:00 21.6 19 Este 28 Este 0 -- -- 46
2020-09-12 08:00:00 21 22 Este 25 Este 0 -- -- 47
2020-09-12 07:00:00 22.1 16 Este 21 Este 0 -- -- 45
2020-09-12 06:00:00 21.7 14 Sudeste 15 Sudeste 0 -- -- 46
2020-09-12 05:00:00 21.2 5 Este 10 Sudeste 0 -- -- 48
2020-09-12 04:00:00 21.5 4 Sudeste 10 Sudeste 0 -- -- 48
2020-09-12 03:00:00 21.3 5 Sur 10 Sudoeste 0 -- -- 48
2020-09-12 02:00:00 21.9 8 Oeste 14 Oeste 0 -- -- 46
2020-09-12 01:00:00 23 9 Sudoeste 15 Oeste 0 -- -- 39
2020-09-12 00:00:00 24.8 6 Sur 11 Sur 0 -- -- 35
2020-09-11 23:00:00 25.5 7 Sur 12 Sudoeste 0 -- -- 34
2020-09-11 22:00:00 26.9 6 Sur 12 Sur 0 -- -- 32
2020-09-11 21:00:00 28.2 8 Sur 17 Sudeste 0 -- -- 30
2020-09-11 20:00:00 31.3 4 Sur 17 Sur 0 -- -- 26
2020-09-11 19:00:00 30.7 10 Sur 20 Sudeste 0 -- -- 27
2020-09-11 18:00:00 31.7 9 Sur 35 Sur 0 -- -- 26
2020-09-11 17:00:00 32.2 9 Oeste 23 Sudeste 0 -- -- 24
2020-09-11 16:00:00 32.5 13 Sudeste 27 Sudeste 0 -- -- 25
2020-09-11 15:00:00 33 16 Este 27 Este 0 -- -- 24
2020-09-11 14:00:00 31.7 14 Este 31 Sudeste 0 -- -- 24
2020-09-11 13:00:00 31.8 14 Este 27 Este 0 -- -- 25
2020-09-11 12:00:00 29.8 13 Este 20 Este 0 -- -- 28
2020-09-11 11:00:00 26.3 14 Este 19 Este 0 -- -- 32
2020-09-11 10:00:00 25.4 7 Sudeste 14 Sudeste 0 -- -- 34
2020-09-11 09:00:00 22.3 9 Sudeste 12 Sudeste 0 -- -- 38
2020-09-11 08:00:00 21.3 6 Sudeste 12 Sudeste 0 -- -- 40
2020-09-11 07:00:00 19.9 8 Sudeste 10 Sudeste 0 -- -- 42
2020-09-11 06:00:00 20.7 4 Sur 9 Sur 0 -- -- 42
2020-09-11 05:00:00 20.4 6 Sudoeste 9 Sudoeste 0 -- -- 42
2020-09-11 04:00:00 20.3 6 Sur 9 Sur 0 -- -- 41
2020-09-11 03:00:00 20.8 6 Sudoeste 12 Sudoeste 0 -- -- 38
2020-09-11 02:00:00 20.9 6 Oeste 19 Oeste 0 -- -- 38
2020-09-11 01:00:00 24.3 3 Nordeste 5 Nordeste 0 -- -- 31
2020-09-11 00:00:00 25 3 Sur 12 Sudeste 0 -- -- 30
2020-09-10 23:00:00 24.6 3 Sudeste 15 Nordeste 0 -- -- 27
2020-09-10 22:00:00 25 13 Nordeste 17 Norte 0 -- -- 27
2020-09-10 21:00:00 27.3 15 Nordeste 17 Norte 0 -- -- 25
2020-09-10 20:00:00 30.5 6 Norte 16 Noroeste 0 -- -- 22
2020-09-10 19:00:00 31.5 6 Norte 23 Noroeste 0 -- -- 20
2020-09-10 18:00:00 32 15 Norte 26 Oeste 0 -- -- 21
2020-09-10 17:00:00 31.6 6 Nordeste 23 Norte 0 -- -- 21
2020-09-10 16:00:00 31.3 6 Oeste 21 Noroeste 0 -- -- 22
2020-09-10 15:00:00 30.6 14 Norte 23 Norte 0 -- -- 23
2020-09-10 14:00:00 30.8 14 Norte 25 Norte 0 -- -- 23
2020-09-10 13:00:00 30.4 7 Nordeste 18 Nordeste 0 -- -- 24
2020-09-10 12:00:00 29.2 8 Este 13 Norte 0 -- -- 25
2020-09-10 11:00:00 26.9 3 Noroeste 6 Noroeste 0 -- -- 31
2020-09-10 10:00:00 24.1 3 Oeste 5 Sudoeste 0 -- -- 39
2020-09-10 09:00:00 21.5 4 Sudoeste 7 Sudoeste 0 -- -- 44
2020-09-10 08:00:00 20.3 5 Sudoeste 7 Sudoeste 0 -- -- 47
2020-09-10 07:00:00 20.4 4 Sudoeste 6 Sudoeste 0 -- -- 46
2020-09-10 06:00:00 20.2 6 Sur 8 Sudoeste 0 -- -- 43
2020-09-10 05:00:00 20.4 2 Sur 5 Sur 0 -- -- 40
2020-09-10 04:00:00 19.8 4 Sur 6 Sudoeste 0 -- -- 42
2020-09-10 03:00:00 20.4 5 Oeste 28 Oeste 0 -- -- 41
2020-09-10 02:00:00 22.8 3 Sudoeste 6 Sudoeste 0 -- -- 37
2020-09-10 01:00:00 23 4 Sudoeste 6 Sudoeste 0 -- -- 37
2020-09-10 00:00:00 23.2 3 Sur 10 Nordeste 0 -- -- 36
2020-09-09 23:00:00 23.4 9 Nordeste 18 Norte 0 -- -- 36
2020-09-09 22:00:00 24.4 15 Norte 21 Norte 0 -- -- 35
2020-09-09 21:00:00 26.7 15 Norte 22 Norte 0 -- -- 32
2020-09-09 20:00:00 29.1 16 Noroeste 26 Norte 0 -- -- 32
2020-09-09 19:00:00 30.2 15 Noroeste 28 Noroeste 0 -- -- 31
2020-09-09 18:00:00 30.3 8 Norte 26 Norte 0 -- -- 29
2020-09-09 17:00:00 30.5 11 Oeste 28 Oeste 0 -- -- 31
2020-09-09 16:00:00 29.7 9 Oeste 23 Oeste 0 -- -- 33
2020-09-09 15:00:00 28.3 7 Oeste 28 Noroeste 0 -- -- 41
2020-09-09 14:00:00 26.8 7 Oeste 18 Oeste 0 -- -- 45
2020-09-09 13:00:00 25.1 5 Norte 17 Sudoeste 0 -- -- 50
2020-09-09 12:00:00 23.5 5 Sudoeste 19 Oeste 0 -- -- 61
2020-09-09 11:00:00 21.2 9 Oeste 21 Oeste 0 -- -- 73
2020-09-09 10:00:00 19.7 6 Oeste 9 Sudoeste 0 -- -- 82
2020-09-09 09:00:00 18 6 Este 9 Este 0 -- -- 81
2020-09-09 08:00:00 17.5 3 Sudeste 5 Sur 0 -- -- 88
2020-09-09 07:00:00 17.4 5 Sudoeste 10 Sudoeste 0 -- -- 87
2020-09-09 06:00:00 18.1 9 Sudoeste 11 Sudoeste 0 -- -- 84
2020-09-09 05:00:00 18.5 9 Sudoeste 15 Sudoeste 0 -- -- 82
2020-09-09 04:00:00 19.5 11 Sudoeste 15 Oeste 0 -- -- 79
2020-09-09 03:00:00 19.7 12 Sudoeste 18 Sudoeste 0 -- -- 76
2020-09-09 02:00:00 20.6 13 Sudoeste 19 Sudoeste 0 -- -- 71
2020-09-09 01:00:00 21.7 10 Sudoeste 15 Sur 0 -- -- 66
2020-09-09 00:00:00 23.2 8 Sur 13 Sur 0 -- -- 60
2020-09-08 23:00:00 24.8 8 Sudoeste 15 Sur 0 -- -- 55
2020-09-08 22:00:00 26.2 12 Sudeste 42 Nordeste 0 -- -- 51
2020-09-08 21:00:00 27.3 24 Norte 37 Norte 0 -- -- 27
2020-09-08 20:00:00 29.8 13 Norte 22 Nordeste 0 -- -- 25
2020-09-08 19:00:00 30.8 10 Norte 25 Nordeste 0 -- -- 27
2020-09-08 18:00:00 31.2 7 Norte 24 Norte 0 -- -- 27
2020-09-08 17:00:00 31.7 7 Este 25 Nordeste 0 -- -- 26
2020-09-08 16:00:00 30.8 9 Norte 22 Norte 0 -- -- 25
2020-09-08 15:00:00 30.6 6 Nordeste 23 Nordeste 0 -- -- 26
2020-09-08 14:00:00 29 12 Nordeste 26 Este 0 -- -- 31
2020-09-08 13:00:00 28.2 11 Este 28 Este 0 -- -- 37
2020-09-08 12:00:00 25.8 15 Este 26 Este 0 -- -- 44
2020-09-08 11:00:00 23.9 17 Este 25 Este 0 -- -- 40
2020-09-08 10:00:00 21.9 15 Este 27 Este 0 -- -- 34
2020-09-08 09:00:00 19.3 17 Este 25 Este 0 -- -- 36
2020-09-08 08:00:00 20.3 21 Este 28 Este 0 -- -- 34
2020-09-08 07:00:00 19.6 21 Este 26 Este 0 -- -- 36
2020-09-08 06:00:00 19.3 17 Este 21 Este 0 -- -- 36
2020-09-08 05:00:00 22.1 19 Este 24 Sudeste 0 -- -- 32
2020-09-08 04:00:00 20 14 Sudeste 21 Nordeste 0 -- -- 34
2020-09-08 03:00:00 20 17 Nordeste 21 Nordeste 0 -- -- 34
2020-09-08 02:00:00 22.1 21 Este 25 Este 0 -- -- 32
2020-09-08 01:00:00 23.4 6 Nordeste 19 Norte 0 -- -- 31
2020-09-08 00:00:00 23.8 13 Nordeste 19 Norte 0 -- -- 29
2020-09-07 23:00:00 24.7 14 Nordeste 24 Norte 0 -- -- 30
2020-09-07 22:00:00 26.3 20 Norte 24 Norte 0 -- -- 29
2020-09-07 21:00:00 28.7 17 Norte 30 Norte 0 -- -- 27
2020-09-07 20:00:00 31.9 23 Norte 34 Noroeste 0 -- -- 23
2020-09-07 19:00:00 33.2 24 Norte 34 Noroeste 0 -- -- 23
2020-09-07 18:00:00 33.8 16 Noroeste 31 Noroeste 0 -- -- 23
2020-09-07 17:00:00 33.9 19 Noroeste 34 Noroeste 0 -- -- 23
2020-09-07 16:00:00 33.2 14 Noroeste 32 Noroeste 0 -- -- 24
2020-09-07 15:00:00 33.5 13 Noroeste 33 Norte 0 -- -- 24
2020-09-07 14:00:00 32.9 20 Norte 31 Norte 0 -- -- 25
2020-09-07 13:00:00 31.9 13 Norte 22 Norte 0 -- -- 26
2020-09-07 12:00:00 29.4 9 Noroeste 19 Noroeste 0 -- -- 32
2020-09-07 11:00:00 26.5 8 Noroeste 15 Noroeste 0 -- -- 38
2020-09-07 10:00:00 24.2 3 Sudoeste 5 Nordeste 0 -- -- 42
2020-09-07 09:00:00 21.4 5 Sudoeste 6 Oeste 0 -- -- 53
2020-09-07 08:00:00 20.8 6 Oeste 7 Oeste 0 -- -- 54
2020-09-07 07:00:00 21 5 Oeste 8 Sudoeste 0 -- -- 53
2020-09-07 06:00:00 20.1 7 Sudoeste 9 Oeste 0 -- -- 55
2020-09-07 05:00:00 20.8 8 Oeste 13 Oeste 0 -- -- 53
2020-09-07 04:00:00 21.8 8 Sudoeste 11 Sudoeste 0 -- -- 50
2020-09-07 03:00:00 21.9 9 Sudoeste 14 Oeste 0 -- -- 52
2020-09-07 02:00:00 22.5 14 Oeste 19 Oeste 0 -- -- 49
2020-09-07 01:00:00 23.6 10 Oeste 18 Sudoeste 0 -- -- 43
2020-09-07 00:00:00 26.4 5 Sur 8 Sudoeste 0 -- -- 27
2020-09-06 23:00:00 27 6 Sudoeste 13 Nordeste 0 -- -- 25
2020-09-06 22:00:00 27.1 11 Norte 19 Norte 0 -- -- 25
2020-09-06 21:00:00 29.9 17 Norte 26 Norte 0 -- -- 23
2020-09-06 20:00:00 32.9 20 Norte 28 Noroeste 0 -- -- 21
2020-09-06 19:00:00 34.5 6 Oeste 27 Noroeste 0 -- -- 20
2020-09-06 18:00:00 34.6 12 Nordeste 25 Norte 0 -- -- 20
2020-09-06 17:00:00 34.8 5 Oeste 23 Noroeste 0 -- -- 19
2020-09-06 16:00:00 34.1 12 Noroeste 29 Noroeste 0 -- -- 20
2020-09-06 15:00:00 33.9 15 Norte 23 Norte 0 -- -- 19
2020-09-06 14:00:00 33.5 6 Sudoeste 18 Nordeste 0 -- -- 22
2020-09-06 13:00:00 32.2 8 Nordeste 18 Nordeste 0 -- -- 26
2020-09-06 12:00:00 30.2 7 Este 13 Este 0 -- -- 33
2020-09-06 11:00:00 27 7 Este 13 Este 0 -- -- 41
2020-09-06 10:00:00 23.1 7 Este 27 Este 0 -- -- 50
2020-09-06 09:00:00 18.9 23 Este 30 Este 0 -- -- 62
2020-09-06 08:00:00 18.6 23 Este 29 Este 0 -- -- 58
2020-09-06 07:00:00 19.6 19 Este 27 Este 0 -- -- 52
2020-09-06 06:00:00 21 19 Sudeste 23 Este 0 -- -- 45
2020-09-06 05:00:00 22.8 14 Este 18 Este 0 -- -- 40
2020-09-06 04:00:00 22.7 6 Sudoeste 10 Oeste 0 -- -- 40
2020-09-06 03:00:00 24.7 8 Sudeste 12 Sudeste 0 -- -- 37
2020-09-06 02:00:00 25.5 6 Sur 9 Sur 0 -- -- 36
2020-09-06 01:00:00 25.4 8 Sur 9 Sur 0 -- -- 35
2020-09-06 00:00:00 26.1 6 Sur 13 Este 0 -- -- 33
2020-09-05 23:00:00 27.3 9 Este 20 Sudeste 0 -- -- 26
2020-09-05 22:00:00 27.1 14 Norte 17 Norte 0 -- -- 28
2020-09-05 21:00:00 29.5 9 Norte 25 Norte 0 -- -- 25
2020-09-05 20:00:00 32.7 14 Noroeste 28 Noroeste 0 -- -- 22
2020-09-05 19:00:00 33.9 7 Norte 21 Noroeste 0 -- -- 22
2020-09-05 18:00:00 34 7 Norte 19 Norte 0 -- -- 21
2020-09-05 17:00:00 33.8 10 Noroeste 20 Noroeste 0 -- -- 21
2020-09-05 16:00:00 34.1 6 Sur 24 Este 0 -- -- 19
2020-09-05 15:00:00 33.3 7 Nordeste 22 Nordeste 0 -- -- 22
2020-09-05 14:00:00 31.9 8 Nordeste 26 Este 0 -- -- 24
2020-09-05 13:00:00 31.5 10 Este 19 Este 0 -- -- 27
2020-09-05 12:00:00 29.7 11 Este 22 Este 0 -- -- 32
2020-09-05 11:00:00 26.2 16 Este 23 Este 0 -- -- 43
2020-09-05 10:00:00 22.7 19 Este 25 Este 0 -- -- 49
2020-09-05 09:00:00 21.5 15 Este 24 Este 0 -- -- 51
2020-09-05 08:00:00 19.3 19 Este 28 Este 0 -- -- 63
2020-09-05 07:00:00 19.1 22 Este 28 Este 0 -- -- 59
2020-09-05 06:00:00 18.4 26 Este 29 Este 0 -- -- 54
2020-09-05 05:00:00 19.1 23 Este 27 Este 0 -- -- 43
2020-09-05 04:00:00 23.3 14 Este 18 Sudeste 0 -- -- 34
2020-09-05 03:00:00 24.3 6 Sudeste 10 Sudeste 0 -- -- 32
2020-09-05 02:00:00 24.9 3 Sur 6 Sudeste 0 -- -- 30
2020-09-05 01:00:00 25 5 Sudeste 9 Sudeste 0 -- -- 30
2020-09-05 00:00:00 25.6 5 Este 14 Este 0 -- -- 29
2020-09-04 23:00:00 25.8 11 Este 15 Sudeste 0 -- -- 28
2020-09-04 22:00:00 26.9 13 Sudeste 19 Sur 0 -- -- 26
2020-09-04 21:00:00 29.3 14 Sur 19 Sur 0 -- -- 25
2020-09-04 20:00:00 32.6 4 Norte 19 Nordeste 0 -- -- 24
2020-09-04 19:00:00 33.3 7 Este 21 Este 0 -- -- 23
2020-09-04 18:00:00 33.7 8 Sudoeste 21 Norte 0 -- -- 24
2020-09-04 17:00:00 33.4 13 Nordeste 32 Sudeste 0 -- -- 25
2020-09-04 16:00:00 32.7 9 Sur 36 Este 0 -- -- 26
2020-09-04 15:00:00 32.1 12 Este 33 Este 0 -- -- 28
2020-09-04 14:00:00 31.3 16 Este 32 Este 0 -- -- 29
2020-09-04 13:00:00 29.2 19 Este 32 Este 0 -- -- 34
2020-09-04 12:00:00 27.5 21 Este 34 Este 0 -- -- 36
2020-09-04 11:00:00 25.6 22 Este 32 Este 0 -- -- 42
2020-09-04 10:00:00 23.3 15 Este 24 Sudeste 0 -- -- 46
2020-09-04 09:00:00 19.6 12 Sudeste 17 Este 0 -- -- 54
2020-09-04 08:00:00 18.5 7 Sudeste 13 Este 0 -- -- 52
2020-09-04 07:00:00 18.5 11 Este 23 Este 0 -- -- 53
2020-09-04 06:00:00 18.8 18 Este 24 Este 0 -- -- 53
2020-09-04 05:00:00 19.9 17 Este 22 Este 0 -- -- 49
2020-09-04 04:00:00 20.2 15 Sudeste 20 Este 0 -- -- 45
2020-09-04 03:00:00 21.8 13 Este 21 Sudeste 0 -- -- 40
2020-09-04 02:00:00 22.6 15 Este 21 Este 0 -- -- 38
2020-09-04 01:00:00 23.4 16 Sudeste 23 Sudeste 0 -- -- 37
2020-09-04 00:00:00 24.6 17 Sudeste 22 Sudeste 0 -- -- 35
2020-09-03 23:00:00 25.5 15 Sudeste 22 Sudeste 0 -- -- 33
2020-09-03 22:00:00 26.3 18 Sudeste 26 Sudeste 0 -- -- 32
2020-09-03 21:00:00 28.6 17 Sudeste 22 Sudeste 0 -- -- 26
2020-09-03 20:00:00 31.6 19 Sudeste 28 Este 0 -- -- 23
2020-09-03 19:00:00 32.9 13 Este 29 Nordeste 0 -- -- 19
2020-09-03 18:00:00 33.2 9 Este 27 Este 0 -- -- 21
2020-09-03 17:00:00 32.8 10 Nordeste 29 Este 0 -- -- 22
2020-09-03 16:00:00 32.7 8 Sudeste 23 Nordeste 0 -- -- 23
2020-09-03 15:00:00 32.3 10 Sudeste 29 Sudeste 0 -- -- 22
2020-09-03 14:00:00 31.7 12 Sudeste 27 Este 0 -- -- 22
2020-09-03 13:00:00 30.5 15 Este 26 Este 0 -- -- 23
2020-09-03 12:00:00 28.9 17 Sudeste 27 Sudeste 0 -- -- 29
2020-09-03 11:00:00 26.1 19 Este 27 Este 0 -- -- 38
2020-09-03 10:00:00 22.5 17 Este 28 Sudeste 0 -- -- 44
2020-09-03 09:00:00 19.4 21 Este 30 Este 0 -- -- 50
2020-09-03 08:00:00 18.3 22 Este 28 Este 0 -- -- 48
2020-09-03 07:00:00 19.2 21 Este 27 Este 0 -- -- 44
2020-09-03 06:00:00 20.3 13 Sudeste 23 Este 0 -- -- 37
2020-09-03 05:00:00 20 3 Sudeste 9 Sur 0 -- -- 42
2020-09-03 04:00:00 19.3 6 Sur 10 Oeste 0 -- -- 45
2020-09-03 03:00:00 20.3 9 Oeste 12 Oeste 0 -- -- 44
2020-09-03 02:00:00 21.7 8 Sudoeste 13 Sudoeste 0 -- -- 42
2020-09-03 01:00:00 22.5 7 Sur 14 Sur 0 -- -- 41
2020-09-03 00:00:00 23.1 10 Sur 14 Sur 0 -- -- 41
2020-09-02 23:00:00 23.9 6 Sudeste 20 Sudeste 0 -- -- 32
2020-09-02 22:00:00 25.7 15 Sudeste 20 Sur 0 -- -- 29
2020-09-02 21:00:00 27.8 16 Sudeste 27 Sudeste 0 -- -- 26
2020-09-02 20:00:00 31 10 Norte 18 Nordeste 0 -- -- 19
2020-09-02 19:00:00 31.9 8 Norte 18 Noroeste 0 -- -- 19
2020-09-02 18:00:00 32 10 Norte 20 Noroeste 0 -- -- 19
2020-09-02 17:00:00 31.7 11 Noroeste 22 Noroeste 0 -- -- 19
2020-09-02 16:00:00 31.6 11 Sudoeste 24 Sur 0 -- -- 19
2020-09-02 15:00:00 31.3 9 Sur 34 Nordeste 0 -- -- 21
2020-09-02 14:00:00 30.1 9 Nordeste 27 Nordeste 0 -- -- 23
2020-09-02 13:00:00 29.3 5 Norte 15 Este 0 -- -- 25
2020-09-02 12:00:00 27.2 6 Este 14 Nordeste 0 -- -- 31
2020-09-02 11:00:00 25.4 5 Nordeste 10 Nordeste 0 -- -- 37
2020-09-02 10:00:00 22.2 5 Sur 8 Sur 0 -- -- 43
2020-09-02 09:00:00 19 4 Sudeste 6 Sur 0 -- -- 58
2020-09-02 08:00:00 16.5 4 Sur -- -- 0 -- -- 65
2020-09-02 07:00:00 17.1 5 Oeste 6 Sudoeste 0 -- -- 63
2020-09-02 06:00:00 16.9 5 Sudoeste 7 Sudoeste 0 -- -- 62
2020-09-02 05:00:00 17.2 4 Sudoeste 9 Sudoeste 0 -- -- 60
2020-09-02 04:00:00 17.4 6 Sudoeste 10 Sudoeste -- -- -- 58
2020-09-02 03:00:00 17.9 9 Sudoeste 11 Sudoeste 0 -- -- 52
2020-09-02 02:00:00 19.2 7 Oeste 12 Noroeste 0 -- -- 48
2020-09-02 01:00:00 20.1 8 Noroeste 21 Noroeste 0 -- -- 44
2020-09-02 00:00:00 21.8 9 Oeste 12 Oeste 0 -- -- 28
2020-09-01 23:00:00 22.9 3 Sur 12 Oeste 0 -- -- 19
2020-09-01 22:00:00 23.6 8 Noroeste 21 Oeste 0 -- -- 18
2020-09-01 21:00:00 25.8 17 Oeste 27 Oeste 0 -- -- 16
2020-09-01 20:00:00 28.6 18 Oeste 31 Oeste 0 -- -- 15
2020-09-01 19:00:00 29.8 16 Oeste 35 Oeste 0 -- -- 15
2020-09-01 18:00:00 30.3 13 Oeste 35 Oeste 0 -- -- 15
2020-09-01 17:00:00 30.7 15 Oeste 32 Oeste 0 -- -- 15
2020-09-01 16:00:00 31 13 Oeste 31 Oeste 0 -- -- 14
2020-09-01 15:00:00 29.5 13 Oeste 28 Oeste 0 -- -- 15
2020-09-01 14:00:00 29.8 9 Oeste 31 Noroeste 0 -- -- 16
2020-09-01 13:00:00 28.2 9 Noroeste 17 Noroeste 0 -- -- 17
2020-09-01 12:00:00 27.1 5 Noroeste 9 Oeste 0 -- -- 20
2020-09-01 11:00:00 24 4 Sur 7 Sudoeste 0 -- -- 26
2020-09-01 10:00:00 20.2 4 Sur 12 Sudeste 0 -- -- 32
2020-09-01 09:00:00 19.1 9 Sudeste 12 Sudeste 0 -- -- 29
2020-09-01 08:00:00 17.6 8 Nordeste 16 Norte 0 -- -- 30
2020-09-01 07:00:00 19.6 13 Sudeste 14 Sudeste 0 -- -- 34
2020-09-01 06:00:00 19.5 7 Sudeste 11 Sudeste 0 -- -- 27
2020-09-01 05:00:00 19.7 8 Nordeste 15 Nordeste 0 -- -- 26
2020-09-01 04:00:00 22.4 11 Este 16 Este 0 -- -- 21
2020-09-01 03:00:00 22.4 15 Este 19 Sudeste 0 -- -- 22
2020-09-01 02:00:00 22.3 14 Sudeste 17 Este 0 -- -- 24
2020-09-01 01:00:00 22.5 10 Este 17 Sudeste 0 -- -- 24
2020-09-01 00:00:00 22.7 13 Este 15 Este 0 -- -- 25
2020-08-31 23:00:00 21.6 3 Sudeste 17 Nordeste 0 -- -- 26
2020-08-31 22:00:00 22.9 14 Nordeste 23 Norte 0 -- -- 24
2020-08-31 21:00:00 26.2 15 Nordeste 22 Norte 0 -- -- 20
2020-08-31 20:00:00 29.7 9 Norte 26 Noroeste 0 -- -- 15
2020-08-31 19:00:00 30.6 14 Noroeste 30 Noroeste 0 -- -- 16
2020-08-31 18:00:00 30.8 8 Oeste 24 Norte 0 -- -- 19
2020-08-31 17:00:00 30.1 13 Noroeste 24 Noroeste 0 -- -- 20
2020-08-31 16:00:00 29.7 12 Norte 24 Noroeste 0 -- -- 21
2020-08-31 15:00:00 28.8 8 Sudeste 23 Sudeste 0 -- -- 23
2020-08-31 14:00:00 28.5 9 Sudeste 31 Este 0 -- -- 24
2020-08-31 13:00:00 27.3 9 Este 25 Este 0 -- -- 24
2020-08-31 12:00:00 25.7 17 Sudeste 32 Sudeste 0 -- -- 28
2020-08-31 11:00:00 23.1 18 Sudeste 27 Sudeste 0 -- -- 32
2020-08-31 10:00:00 20.5 19 Este 28 Este 0 -- -- 28
2020-08-31 09:00:00 17.7 19 Este 28 Este 0 -- -- 32
2020-08-31 08:00:00 16.8 23 Este 29 Este 0 -- -- 33
2020-08-31 07:00:00 17.7 17 Este 24 Este 0 -- -- 32
2020-08-31 06:00:00 16.1 18 Este 22 Este 0 -- -- 35
2020-08-31 05:00:00 16.3 21 Este 27 Este 0 -- -- 34
2020-08-31 04:00:00 16.7 20 Este 22 Este 0 -- -- 33
2020-08-31 03:00:00 15.3 18 Nordeste 20 Nordeste 0 -- -- 34
2020-08-31 02:00:00 16.5 19 Nordeste 20 Nordeste 0 -- -- 33
2020-08-31 01:00:00 16.7 18 Nordeste 20 Nordeste 0 -- -- 34
2020-08-31 00:00:00 17.6 17 Nordeste 23 Nordeste 0 -- -- 32
2020-08-30 23:00:00 18.5 17 Nordeste 20 Nordeste 0 -- -- 29
2020-08-30 22:00:00 20.7 18 Norte 26 Norte 0 -- -- 26
2020-08-30 21:00:00 23.3 18 Norte 26 Norte 0 -- -- 24
2020-08-30 20:00:00 26.1 17 Norte 28 Norte 0 -- -- 22
2020-08-30 19:00:00 27.2 20 Norte 31 Norte 0 -- -- 19
2020-08-30 18:00:00 27.5 16 Norte 28 Noroeste 0 -- -- 20
2020-08-30 17:00:00 27.2 12 Norte 26 Oeste 0 -- -- 21
2020-08-30 16:00:00 26.9 9 Oeste 29 Noroeste 0 -- -- 21
2020-08-30 15:00:00 26.2 12 Noroeste 26 Noroeste 0 -- -- 21
2020-08-30 14:00:00 25.3 12 Norte 24 Nordeste 0 -- -- 25
2020-08-30 13:00:00 24.7 9 Este 19 Este 0 -- -- 27
2020-08-30 12:00:00 23.4 7 Este 16 Norte 0 -- -- 30
2020-08-30 11:00:00 20.4 6 Nordeste 14 Nordeste 0 -- -- 38
2020-08-30 10:00:00 17.2 4 Nordeste 9 Nordeste 0 -- -- 47
2020-08-30 09:00:00 15.1 3 Norte 6 Norte 0 -- -- 54
2020-08-30 08:00:00 13.3 4 Norte 8 Norte 0 -- -- 58
2020-08-30 07:00:00 13.4 0 Calma 7 Noroeste 0 -- -- 55
2020-08-30 06:00:00 14 5 Noroeste 14 Norte 0 -- -- 52
2020-08-30 05:00:00 13.8 13 Noroeste 15 Noroeste 0 -- -- 51
2020-08-30 04:00:00 14.7 8 Oeste 13 Noroeste 0 -- -- 47
2020-08-30 03:00:00 15.4 8 Noroeste 18 Oeste 0 -- -- 46
2020-08-30 02:00:00 16.1 5 Noroeste 22 Norte 0 -- -- 43
2020-08-30 01:00:00 16.6 15 Norte 19 Norte 0 -- -- 40
2020-08-30 00:00:00 17.5 12 Noroeste 19 Noroeste 0 -- -- 38
2020-08-29 23:00:00 18.1 17 Noroeste 22 Norte 0 -- -- 37
2020-08-29 22:00:00 19.6 18 Norte 33 Noroeste 0 -- -- 34
2020-08-29 21:00:00 21.8 23 Noroeste 36 Norte 0 -- -- 30
2020-08-29 20:00:00 23.7 32 Norte 41 Noroeste 0 -- -- 25
2020-08-29 19:00:00 24.5 33 Noroeste 48 Noroeste 0 -- -- 24
2020-08-29 18:00:00 25.1 27 Norte 53 Noroeste 0 -- -- 25
2020-08-29 17:00:00 25 30 Noroeste 49 Noroeste 0 -- -- 26
2020-08-29 16:00:00 24.3 28 Noroeste 46 Norte 0 -- -- 27
2020-08-29 15:00:00 23.5 29 Norte 48 Noroeste 0 -- -- 31
2020-08-29 14:00:00 22.8 32 Noroeste 49 Norte 0 -- -- 34
2020-08-29 13:00:00 21.1 34 Noroeste 57 Noroeste 0 -- -- 38
2020-08-29 12:00:00 18.5 36 Noroeste 49 Noroeste 0 -- -- 44
2020-08-29 11:00:00 16.4 36 Noroeste 51 Norte 0 -- -- 50
2020-08-29 10:00:00 15.1 32 Noroeste 48 Noroeste 0 -- -- 53
2020-08-29 09:00:00 12.3 19 Noroeste 30 Noroeste 0 -- -- 68
2020-08-29 08:00:00 10.3 16 Noroeste 25 Noroeste 0 -- -- 78
2020-08-29 07:00:00 11 10 Oeste 19 Oeste 0 -- -- 75
2020-08-29 06:00:00 11.1 16 Oeste 22 Noroeste 0 -- -- 74
2020-08-29 05:00:00 12.5 18 Oeste 24 Oeste 0 -- -- 70
2020-08-29 04:00:00 13.3 20 Oeste 27 Oeste 0 -- -- 67
2020-08-29 03:00:00 14.1 19 Oeste 32 Oeste 0 -- -- 62
2020-08-29 02:00:00 14.9 25 Oeste 42 Noroeste 0 -- -- 58
2020-08-29 01:00:00 16.1 33 Oeste 40 Oeste 0 -- -- 53
2020-08-29 00:00:00 17.8 27 Noroeste 39 Oeste 0 -- -- 48
2020-08-28 23:00:00 19.6 32 Oeste 41 Oeste 0 -- -- 36
2020-08-28 22:00:00 21.9 24 Oeste 33 Oeste 0 -- -- 33
2020-08-28 21:00:00 24.2 25 Noroeste 41 Oeste 0 -- -- 22
2020-08-28 20:00:00 27 31 Oeste 45 Oeste 0 -- -- 20
2020-08-28 19:00:00 28.5 33 Oeste 46 Noroeste 0 -- -- 20
2020-08-28 18:00:00 29.4 35 Oeste 46 Oeste 0 -- -- 24
2020-08-28 17:00:00 30.2 28 Oeste 49 Oeste 0 -- -- 32
2020-08-28 16:00:00 30.1 30 Oeste 46 Oeste 0 -- -- 36
2020-08-28 15:00:00 29.6 27 Oeste 49 Oeste 0 -- -- 39
2020-08-28 14:00:00 27.6 24 Oeste 42 Oeste 0 -- -- 45
2020-08-28 13:00:00 27 25 Noroeste 44 Noroeste 0 -- -- 43
2020-08-28 12:00:00 24.6 24 Noroeste 33 Oeste 0 -- -- 52
2020-08-28 11:00:00 21.9 20 Oeste 25 Noroeste 0 -- -- 61
2020-08-28 10:00:00 18.7 17 Oeste 23 Oeste 0 -- -- 78
2020-08-28 09:00:00 16.6 13 Oeste 16 Oeste 0 -- -- 89
2020-08-28 08:00:00 15.4 13 Oeste 17 Oeste 0 -- -- 91
2020-08-28 07:00:00 15.7 12 Oeste 18 Oeste 0 -- -- 91
2020-08-28 06:00:00 16.1 15 Oeste 19 Oeste 0 -- -- 89
2020-08-28 05:00:00 16.8 12 Oeste 22 Oeste 0 -- -- 86
2020-08-28 04:00:00 17.9 14 Oeste 23 Oeste 0 -- -- 82
2020-08-28 03:00:00 19.4 19 Oeste 26 Oeste 0 -- -- 76
2020-08-28 02:00:00 20.6 13 Oeste 22 Oeste 0 -- -- 67
2020-08-28 01:00:00 22.3 17 Oeste 23 Oeste 0 -- -- 54
2020-08-28 00:00:00 24.1 18 Oeste 31 Noroeste 0 -- -- 49
2020-08-27 23:00:00 26.7 24 Oeste 32 Oeste 0 -- -- 41
2020-08-27 22:00:00 28.4 21 Oeste 34 Oeste 0 -- -- 35
2020-08-27 21:00:00 30.9 24 Oeste 38 Oeste 0 -- -- 31
2020-08-27 20:00:00 33.1 26 Oeste 39 Oeste 0 -- -- 27
2020-08-27 19:00:00 34.3 24 Oeste 43 Oeste 0 -- -- 25
2020-08-27 18:00:00 34.9 20 Oeste 40 Oeste 0 -- -- 25
2020-08-27 17:00:00 35.4 19 Oeste 36 Oeste 0 -- -- 23
2020-08-27 16:00:00 35.3 19 Oeste 36 Oeste 0 -- -- 17
2020-08-27 15:00:00 35 22 Oeste 35 Oeste 0 -- -- 18
2020-08-27 14:00:00 33.6 19 Oeste 35 Noroeste 0 -- -- 24
2020-08-27 13:00:00 32.9 15 Oeste 21 Oeste 0 -- -- 22
2020-08-27 12:00:00 29.9 10 Oeste 19 Oeste 0 -- -- 28
2020-08-27 11:00:00 26.3 9 Noroeste 19 Noroeste 0 -- -- 37
2020-08-27 10:00:00 25.2 12 Oeste 16 Noroeste 0 -- -- 38
2020-08-27 09:00:00 23.5 4 Sudoeste 9 Sudeste 0 -- -- 39
2020-08-27 08:00:00 24 5 Sudeste 9 Sudeste 0 -- -- 40
2020-08-27 07:00:00 23.3 9 Sudeste 10 Sudeste 0 -- -- 43
2020-08-27 06:00:00 23.8 5 Sur 8 Sur 0 -- -- 39
2020-08-27 05:00:00 24.3 4 Sur 8 Sur 0 -- -- 36
2020-08-27 04:00:00 24.4 5 Sur 7 Sur 0 -- -- 32
2020-08-27 03:00:00 25.2 4 Sur 6 Sur 0 -- -- 29
2020-08-27 02:00:00 26.3 3 Sudoeste 6 Oeste 0 -- -- 27
2020-08-27 01:00:00 26.7 3 Sur 6 Sudoeste 0 -- -- 25
2020-08-27 00:00:00 27.9 5 Sudoeste 7 Oeste 0 -- -- 23
2020-08-26 23:00:00 28.2 7 Oeste 13 Oeste 0 -- -- 22
2020-08-26 22:00:00 29.2 10 Noroeste 20 Oeste 0 -- -- 20
2020-08-26 21:00:00 31.5 19 Oeste 33 Oeste 0 -- -- 17
2020-08-26 20:00:00 34.5 24 Oeste 36 Oeste 0 -- -- 16
2020-08-26 19:00:00 35.8 23 Oeste 35 Oeste 0 -- -- 19
2020-08-26 18:00:00 36.5 22 Oeste 35 Oeste 0 -- -- 21
2020-08-26 17:00:00 36.9 21 Noroeste 35 Oeste 0 -- -- 20
2020-08-26 16:00:00 37.4 17 Oeste 32 Oeste 0 -- -- 19
2020-08-26 15:00:00 36.7 20 Oeste 32 Sudoeste 0 -- -- 19
2020-08-26 14:00:00 35.5 16 Oeste 26 Oeste 0 -- -- 21
2020-08-26 13:00:00 34.5 15 Sudoeste 28 Sudoeste 0 -- -- 22
2020-08-26 12:00:00 33.1 7 Oeste 14 Noroeste 0 -- -- 21
2020-08-26 11:00:00 31.3 4 Sur 12 Sudeste 0 -- -- 23
2020-08-26 10:00:00 29 7 Sudeste 11 Sudeste 0 -- -- 21
2020-08-26 09:00:00 25.8 6 Sudeste 12 Sudeste 0 -- -- 24
2020-08-26 08:00:00 24.4 3 Sur 5 Sudeste 0 -- -- 28
2020-08-26 07:00:00 23.7 3 Sudoeste 10 Sudeste 0 -- -- 34
2020-08-26 06:00:00 22.3 9 Sudeste 11 Sudeste 0 -- -- 37
2020-08-26 05:00:00 23.4 4 Sudoeste 8 Sudoeste 0 -- -- 36
2020-08-26 04:00:00 23.4 5 Sudoeste 7 Sudoeste 0 -- -- 36
2020-08-26 03:00:00 23.8 5 Sudoeste 8 Sudoeste 0 -- -- 35
2020-08-26 02:00:00 24.8 3 Sudoeste 8 Oeste 0 -- -- 34
2020-08-26 01:00:00 26.1 5 Noroeste 11 Oeste 0 -- -- 33
2020-08-26 00:00:00 27.9 6 Sur 9 Sur 0 -- -- 30
2020-08-25 23:00:00 29.3 4 Oeste 17 Noroeste 0 -- -- 28
2020-08-25 22:00:00 30.4 6 Noroeste 22 Noroeste 0 -- -- 26
2020-08-25 21:00:00 33.4 17 Noroeste 28 Oeste 0 -- -- 23
2020-08-25 20:00:00 36.3 8 Noroeste 18 Noroeste 0 -- -- 19
2020-08-25 19:00:00 36.8 12 Noroeste 26 Noroeste 0 -- -- 19
2020-08-25 18:00:00 37.1 6 Oeste 24 Noroeste 0 -- -- 19
2020-08-25 17:00:00 36.8 9 Oeste 33 Oeste 0 -- -- 20
2020-08-25 16:00:00 36 10 Norte 25 Sur 0 -- -- 19
2020-08-25 15:00:00 34.8 5 Nordeste 22 Oeste 0 -- -- 21
2020-08-25 14:00:00 34 10 Noroeste 20 Noroeste 0 -- -- 22
2020-08-25 13:00:00 33.1 5 Nordeste 18 Nordeste 0 -- -- 24
2020-08-25 12:00:00 32 7 Norte 14 Norte 0 -- -- 27
2020-08-25 11:00:00 30.5 5 Este 10 Este 0 -- -- 32
2020-08-25 10:00:00 27.6 4 Sudeste 9 Sudeste 0 -- -- 36
2020-08-25 09:00:00 25 6 Este 12 Sudeste 0 -- -- 40
2020-08-25 08:00:00 22.9 9 Este 12 Este 0 -- -- 45
2020-08-25 07:00:00 22.4 10 Sudeste 12 Este 0 -- -- 47
2020-08-25 06:00:00 22 4 Sur 9 Sudoeste 0 -- -- 50
2020-08-25 05:00:00 21.8 7 Sudoeste 11 Sudoeste 0 -- -- 51
2020-08-25 04:00:00 21.8 9 Sudoeste 13 Sudoeste 0 -- -- 51
2020-08-25 03:00:00 22.6 12 Oeste 15 Sudoeste 0 -- -- 48
2020-08-25 02:00:00 23.6 14 Sudoeste 17 Sudoeste 0 -- -- 44
2020-08-25 01:00:00 24.7 13 Sudoeste 16 Sudoeste 0 -- -- 40
2020-08-25 00:00:00 26 9 Sudoeste 15 Sudoeste 0 -- -- 38
2020-08-24 23:00:00 27.4 9 Sudoeste 15 Sudoeste 0 -- -- 30
2020-08-24 22:00:00 29.4 10 Noroeste 27 Noroeste 0 -- -- 24
2020-08-24 21:00:00 32.6 11 Oeste 18 Oeste 0 -- -- 19
2020-08-24 20:00:00 35.2 15 Sudoeste 27 Oeste 0 -- -- 18
2020-08-24 19:00:00 36.1 13 Oeste 25 Oeste 0 -- -- 17
2020-08-24 18:00:00 36.4 10 Sudoeste 24 Sudoeste 0 -- -- 15
2020-08-24 17:00:00 36.4 12 Sudoeste 24 Sudoeste 0 -- -- 15
2020-08-24 16:00:00 35.7 13 Sudoeste 33 Sur 0 -- -- 17
2020-08-24 15:00:00 35.1 13 Sudeste 24 Sur 0 -- -- 18
2020-08-24 14:00:00 34.2 10 Sudeste 25 Este 0 -- -- 18
2020-08-24 13:00:00 33.3 12 Sudeste 25 Este 0 -- -- 19
2020-08-24 12:00:00 31.5 11 Este 19 Este 0 -- -- 24
2020-08-24 11:00:00 28.2 10 Este 14 Este 0 -- -- 32
2020-08-24 10:00:00 24.9 5 Sudeste 9 Sudeste 0 -- -- 41
2020-08-24 09:00:00 21.3 0 Calma 4 Sudeste 0 -- -- 50
2020-08-24 08:00:00 18.7 3 Sur 8 Oeste 0 -- -- 56
2020-08-24 07:00:00 19.3 5 Sudoeste 9 Sudoeste 0 -- -- 55
2020-08-24 06:00:00 19.8 6 Sudoeste 10 Sudoeste 0 -- -- 53
2020-08-24 05:00:00 20.1 8 Sudoeste 9 Sudoeste 0 -- -- 51
2020-08-24 04:00:00 20.5 7 Sudoeste 10 Sudoeste 0 -- -- 47
2020-08-24 03:00:00 21.2 8 Sudoeste 13 Sudoeste 0 -- -- 44
2020-08-24 02:00:00 21.5 8 Sudoeste 11 Oeste 0 -- -- 37
2020-08-24 01:00:00 22.4 12 Oeste 21 Oeste 0 -- -- 28
2020-08-24 00:00:00 25.6 5 Sudoeste 6 Sudoeste 0 -- -- 23
2020-08-23 23:00:00 26.5 5 Noroeste 12 Noroeste 0 -- -- 22
2020-08-23 22:00:00 27.5 13 Noroeste 18 Noroeste 0 -- -- 21
2020-08-23 21:00:00 29.8 12 Noroeste 23 Noroeste 0 -- -- 19
2020-08-23 20:00:00 31.8 17 Norte 31 Norte 0 -- -- 19
2020-08-23 19:00:00 32.3 17 Noroeste 35 Noroeste 0 -- -- 20
2020-08-23 18:00:00 32.6 16 Norte 32 Noroeste 0 -- -- 18
2020-08-23 17:00:00 32.1 15 Norte 33 Noroeste 0 -- -- 17
2020-08-23 16:00:00 31.9 17 Noroeste 35 Noroeste 0 -- -- 18
2020-08-23 15:00:00 31.5 16 Noroeste 32 Oeste 0 -- -- 17
2020-08-23 14:00:00 30.4 13 Noroeste 24 Noroeste 0 -- -- 20
2020-08-23 13:00:00 29 13 Noroeste 25 Noroeste 0 -- -- 23
2020-08-23 12:00:00 27.3 11 Noroeste 18 Noroeste 0 -- -- 28
2020-08-23 11:00:00 24.5 5 Noroeste 15 Noroeste 0 -- -- 34
2020-08-23 10:00:00 22.2 3 Noroeste 6 Oeste 0 -- -- 39
2020-08-23 09:00:00 20.7 3 Sudoeste 6 Sudoeste 0 -- -- 42
2020-08-23 08:00:00 18.7 4 Sudoeste 7 Oeste 0 -- -- 45
2020-08-23 07:00:00 18.8 4 Sur 9 Oeste 0 -- -- 43
2020-08-23 06:00:00 19.2 5 Sudoeste 8 Oeste 0 -- -- 42
2020-08-23 05:00:00 19.7 5 Sudoeste 8 Sudoeste 0 -- -- 39
2020-08-23 04:00:00 20 6 Sudoeste 8 Sudoeste 0 -- -- 38
2020-08-23 03:00:00 20.3 8 Oeste 12 Oeste 0 -- -- 37
2020-08-23 02:00:00 21 8 Oeste 9 Oeste 0 -- -- 35
2020-08-23 01:00:00 23 6 Oeste 12 Noroeste 0 -- -- 28
2020-08-23 00:00:00 24.1 3 Sudoeste 15 Noroeste 0 -- -- 26
2020-08-22 23:00:00 24.8 13 Noroeste 22 Noroeste 0 -- -- 26
2020-08-22 22:00:00 26.3 16 Noroeste 23 Noroeste 0 -- -- 24
2020-08-22 21:00:00 29.3 19 Noroeste 30 Noroeste 0 -- -- 22
2020-08-22 20:00:00 31.6 19 Norte 30 Noroeste 0 -- -- 21
2020-08-22 19:00:00 32.6 17 Norte 28 Noroeste 0 -- -- 20
2020-08-22 18:00:00 33.1 15 Norte 27 Norte 0 -- -- 18
2020-08-22 17:00:00 32.8 15 Norte 26 Noroeste 0 -- -- 18
2020-08-22 16:00:00 32.3 14 Norte 26 Noroeste 0 -- -- 22
2020-08-22 15:00:00 31.9 13 Norte 29 Noroeste 0 -- -- 22
2020-08-22 14:00:00 30.3 11 Noroeste 25 Sudoeste 0 -- -- 23
2020-08-22 13:00:00 28.6 6 Noroeste 14 Norte 0 -- -- 31
2020-08-22 12:00:00 26.8 8 Norte 13 Norte 0 -- -- 38
2020-08-22 11:00:00 24.3 5 Norte 13 Norte 0 -- -- 42
2020-08-22 10:00:00 21.1 3 Noroeste 6 Noroeste 0 -- -- 53
2020-08-22 09:00:00 19.5 3 Oeste 5 Oeste 0 -- -- 59
2020-08-22 08:00:00 17.8 4 Noroeste 5 Noroeste 0 -- -- 64
2020-08-22 07:00:00 18 3 Oeste 4 Oeste 0 -- -- 63
2020-08-22 06:00:00 18.1 3 Sur 4 Sudeste 0 -- -- 61
2020-08-22 05:00:00 18.4 4 Oeste 12 Noroeste 0 -- -- 61
2020-08-22 04:00:00 18.6 11 Noroeste 15 Noroeste 0 -- -- 59
2020-08-22 03:00:00 19.6 11 Noroeste 14 Noroeste 0 -- -- 58
2020-08-22 02:00:00 20.6 10 Noroeste 21 Norte 0 -- -- 56
2020-08-22 01:00:00 21.6 15 Norte 19 Norte 0 -- -- 55
2020-08-22 00:00:00 22.7 17 Norte 27 Norte 0 -- -- 54
2020-08-21 23:00:00 24.5 17 Noroeste 26 Oeste 0 -- -- 56
2020-08-21 22:00:00 25.6 19 Oeste 34 Noroeste 0 -- -- 57
2020-08-21 21:00:00 27.4 24 Oeste 33 Oeste 0 -- -- 54
2020-08-21 20:00:00 29.4 25 Oeste 39 Oeste 0 -- -- 48
2020-08-21 19:00:00 30.8 28 Noroeste 39 Noroeste 0 -- -- 45
2020-08-21 18:00:00 31.7 19 Oeste 37 Oeste 0 -- -- 39
2020-08-21 17:00:00 31.8 21 Oeste 42 Oeste 0 -- -- 38
2020-08-21 16:00:00 32.2 18 Oeste 34 Oeste 0 -- -- 35
2020-08-21 15:00:00 31.3 19 Oeste 35 Oeste 0 -- -- 35
2020-08-21 14:00:00 30.4 17 Sudoeste 32 Sudoeste 0 -- -- 37
2020-08-21 13:00:00 28 12 Oeste 23 Sudoeste 0 -- -- 49
2020-08-21 12:00:00 25.7 7 Oeste 17 Oeste 0 -- -- 58
2020-08-21 11:00:00 22 5 Oeste 12 Oeste 0 -- -- 76
2020-08-21 10:00:00 18.2 5 Noroeste 11 Noroeste 0 -- -- 97
2020-08-21 09:00:00 17 3 Oeste 5 Oeste 0 -- -- 95
2020-08-21 08:00:00 17 4 Sudoeste 6 Sudoeste 0 -- -- 94
2020-08-21 07:00:00 17.1 6 Sur 8 Sudoeste 0 -- -- 92
2020-08-21 06:00:00 17.9 4 Oeste 10 Oeste 0 -- -- 91
2020-08-21 05:00:00 18.2 10 Oeste 12 Oeste 0 -- -- 88
2020-08-21 04:00:00 18.8 11 Oeste 15 Oeste 0 -- -- 85
2020-08-21 03:00:00 19.7 8 Sudoeste 14 Oeste 0 -- -- 81
2020-08-21 02:00:00 20.6 13 Oeste 20 Oeste 0 -- -- 76
2020-08-21 01:00:00 22.2 15 Oeste 26 Oeste 0 -- -- 70
2020-08-21 00:00:00 23.8 21 Oeste 31 Oeste 0 -- -- 64